createdAt,value
2017-10-03T00:00:23.989Z,0.00
2017-10-03T00:01:23.909Z,0.00
2017-10-03T00:02:23.820Z,0.00
2017-10-03T00:03:23.746Z,0.00
2017-10-03T00:04:23.679Z,0.00
2017-10-03T00:05:23.580Z,0.00
2017-10-03T00:06:23.522Z,0.00
2017-10-03T00:07:23.422Z,0.00
2017-10-03T00:08:23.343Z,0.00
2017-10-03T00:09:23.255Z,0.00
2017-10-03T00:10:23.176Z,0.00
2017-10-03T00:11:23.096Z,0.00
2017-10-03T00:12:23.017Z,0.00
2017-10-03T00:13:22.939Z,0.00
2017-10-03T00:14:22.873Z,0.00
2017-10-03T00:15:22.777Z,0.00
2017-10-03T00:16:22.726Z,0.00
2017-10-03T00:17:22.616Z,0.00
2017-10-03T00:18:22.534Z,0.00
2017-10-03T00:19:22.452Z,0.00
2017-10-03T00:20:22.371Z,0.00
2017-10-03T00:21:22.292Z,0.00
2017-10-03T00:22:22.213Z,0.00
2017-10-03T00:23:22.137Z,0.00
2017-10-03T00:24:22.057Z,0.00
2017-10-03T00:25:21.970Z,0.00
2017-10-03T00:26:21.886Z,0.00
2017-10-03T00:27:21.818Z,0.00
2017-10-03T00:28:21.727Z,0.00
2017-10-03T00:29:21.645Z,0.00
2017-10-03T00:30:21.565Z,0.00
2017-10-03T00:31:21.485Z,0.00
2017-10-03T00:32:21.401Z,0.00
2017-10-03T00:33:21.317Z,0.00
2017-10-03T00:34:21.244Z,0.00
2017-10-03T00:35:21.163Z,0.00
2017-10-03T00:36:21.078Z,0.00
2017-10-03T00:37:20.990Z,0.00
2017-10-03T00:38:20.920Z,0.00
2017-10-03T00:39:20.833Z,0.00
2017-10-03T00:40:20.752Z,0.00
2017-10-03T00:41:20.690Z,0.00
2017-10-03T00:42:20.590Z,0.00
2017-10-03T00:43:20.507Z,0.00
2017-10-03T00:44:20.428Z,0.00
2017-10-03T00:45:20.358Z,0.00
2017-10-03T00:46:20.267Z,0.00
2017-10-03T00:47:20.202Z,0.00
2017-10-03T00:48:20.105Z,0.00
2017-10-03T00:49:20.029Z,0.00
2017-10-03T00:50:19.944Z,0.00
2017-10-03T00:51:19.862Z,0.00
2017-10-03T00:52:19.783Z,0.00
2017-10-03T00:53:19.702Z,0.00
2017-10-03T00:54:19.624Z,0.00
2017-10-03T00:55:19.547Z,0.00
2017-10-03T00:56:19.456Z,0.00
2017-10-03T00:57:19.381Z,0.00
2017-10-03T00:58:19.313Z,0.00
2017-10-03T00:59:19.217Z,0.00
2017-10-03T01:00:19.142Z,0.00
2017-10-03T01:01:19.066Z,0.00
2017-10-03T01:02:18.982Z,0.00
2017-10-03T01:03:18.902Z,0.00
2017-10-03T01:04:18.821Z,0.00
2017-10-03T01:05:18.741Z,0.00
2017-10-03T01:06:18.658Z,0.00
2017-10-03T01:07:18.587Z,0.00
2017-10-03T01:08:18.502Z,0.00
2017-10-03T01:09:18.420Z,0.00
2017-10-03T01:10:18.336Z,0.00
2017-10-03T01:11:18.275Z,0.00
2017-10-03T01:12:18.179Z,0.00
2017-10-03T01:13:18.096Z,0.00
2017-10-03T01:14:18.026Z,0.00
2017-10-03T01:15:17.938Z,0.00
2017-10-03T01:16:17.858Z,0.00
2017-10-03T01:17:17.786Z,0.00
2017-10-03T01:18:17.696Z,0.00
2017-10-03T01:19:17.614Z,0.00
2017-10-03T01:20:17.537Z,0.00
2017-10-03T01:21:17.455Z,0.00
2017-10-03T01:22:17.377Z,0.00
2017-10-03T01:23:17.293Z,0.00
2017-10-03T01:24:17.214Z,0.00
2017-10-03T01:25:17.137Z,0.00
2017-10-03T01:26:17.058Z,0.00
2017-10-03T01:27:16.981Z,0.00
2017-10-03T01:28:16.899Z,0.00
2017-10-03T01:29:16.820Z,0.00
2017-10-03T01:30:16.732Z,0.00
2017-10-03T01:31:16.655Z,0.00
2017-10-03T01:32:16.599Z,0.00
2017-10-03T01:33:16.499Z,0.00
2017-10-03T01:34:16.414Z,0.00
2017-10-03T01:35:16.341Z,0.00
2017-10-03T01:36:16.253Z,0.00
2017-10-03T01:37:16.195Z,0.00
2017-10-03T01:38:16.092Z,0.00
2017-10-03T01:39:16.009Z,0.00
2017-10-03T01:40:15.934Z,0.00
2017-10-03T01:41:15.854Z,0.00
2017-10-03T01:42:15.769Z,0.00
2017-10-03T01:43:15.690Z,0.00
2017-10-03T01:44:15.620Z,0.00
2017-10-03T01:45:15.533Z,0.00
2017-10-03T01:46:15.445Z,0.00
2017-10-03T01:47:15.368Z,0.00
2017-10-03T01:48:15.288Z,0.00
2017-10-03T01:49:15.229Z,0.00
2017-10-03T01:50:15.128Z,0.00
2017-10-03T01:51:15.072Z,0.00
2017-10-03T01:52:14.963Z,0.00
2017-10-03T01:53:14.886Z,0.00
2017-10-03T01:54:14.812Z,0.00
2017-10-03T01:55:14.726Z,0.00
2017-10-03T01:56:14.647Z,0.00
2017-10-03T01:57:14.576Z,0.00
2017-10-03T01:58:14.485Z,0.00
2017-10-03T01:59:14.402Z,0.00
2017-10-03T02:00:14.325Z,0.00
2017-10-03T02:01:14.249Z,0.00
2017-10-03T02:02:14.165Z,0.00
2017-10-03T02:03:14.103Z,0.00
2017-10-03T02:04:14.020Z,0.00
2017-10-03T02:05:13.923Z,0.00
2017-10-03T02:06:13.843Z,0.00
2017-10-03T02:07:13.764Z,0.00
2017-10-03T02:08:13.681Z,0.00
2017-10-03T02:09:13.603Z,0.00
2017-10-03T02:10:13.528Z,0.00
2017-10-03T02:11:13.439Z,0.00
2017-10-03T02:12:13.357Z,0.00
2017-10-03T02:13:13.288Z,0.00
2017-10-03T02:14:13.200Z,0.00
2017-10-03T02:15:13.118Z,0.00
2017-10-03T02:16:13.041Z,0.00
2017-10-03T02:17:12.960Z,0.00
2017-10-03T02:18:12.878Z,0.00
2017-10-03T02:19:12.798Z,0.00
2017-10-03T02:20:12.724Z,0.00
2017-10-03T02:21:12.638Z,0.00
2017-10-03T02:22:12.558Z,0.00
2017-10-03T02:23:12.489Z,0.00
2017-10-03T02:24:12.396Z,0.00
2017-10-03T02:25:12.311Z,0.00
2017-10-03T02:26:12.234Z,0.00
2017-10-03T02:27:12.173Z,0.00
2017-10-03T02:28:12.077Z,0.00
2017-10-03T02:29:12.002Z,0.00
2017-10-03T02:30:11.928Z,0.00
2017-10-03T02:31:11.833Z,0.00
2017-10-03T02:32:11.761Z,0.00
2017-10-03T02:33:11.700Z,0.00
2017-10-03T02:34:11.596Z,0.00
2017-10-03T02:35:11.526Z,0.00
2017-10-03T02:36:11.445Z,0.00
2017-10-03T02:37:11.355Z,0.00
2017-10-03T02:38:11.268Z,0.00
2017-10-03T02:39:11.192Z,0.00
2017-10-03T02:40:11.116Z,0.00
2017-10-03T02:41:11.030Z,0.00
2017-10-03T02:42:10.951Z,0.00
2017-10-03T02:43:10.875Z,0.00
2017-10-03T02:44:10.793Z,0.00
2017-10-03T02:45:10.720Z,0.00
2017-10-03T02:46:10.631Z,0.00
2017-10-03T02:47:10.564Z,0.00
2017-10-03T02:48:10.525Z,0.00
2017-10-03T02:49:10.391Z,0.00
2017-10-03T02:50:10.315Z,0.00
2017-10-03T02:51:10.228Z,0.00
2017-10-03T02:52:10.158Z,0.00
2017-10-03T02:53:10.069Z,0.00
2017-10-03T02:54:09.993Z,0.00
2017-10-03T02:55:09.911Z,0.00
2017-10-03T02:56:09.838Z,0.00
2017-10-03T02:57:09.756Z,0.00
2017-10-03T02:58:09.666Z,0.00
2017-10-03T02:59:09.590Z,0.00
2017-10-03T03:00:09.504Z,0.00
2017-10-03T03:01:09.425Z,0.00
2017-10-03T03:02:09.343Z,0.00
2017-10-03T03:03:09.273Z,0.00
2017-10-03T03:04:09.183Z,0.00
2017-10-03T03:05:09.100Z,0.00
2017-10-03T03:06:09.017Z,0.00
2017-10-03T03:07:08.935Z,0.00
2017-10-03T03:08:08.859Z,0.00
2017-10-03T03:09:08.774Z,0.00
2017-10-03T03:10:08.713Z,0.00
2017-10-03T03:11:08.612Z,0.00
2017-10-03T03:12:08.532Z,0.00
2017-10-03T03:13:08.516Z,0.00
2017-10-03T03:14:08.372Z,0.00
2017-10-03T03:15:08.288Z,0.00
2017-10-03T03:16:08.208Z,0.00
2017-10-03T03:17:08.142Z,0.00
2017-10-03T03:18:08.045Z,0.00
2017-10-03T03:19:07.959Z,0.00
2017-10-03T03:20:07.877Z,0.00
2017-10-03T03:21:07.799Z,0.00
2017-10-03T03:22:07.732Z,0.00
2017-10-03T03:23:07.633Z,0.00
2017-10-03T03:24:07.580Z,0.00
2017-10-03T03:25:07.485Z,0.00
2017-10-03T03:26:07.389Z,0.00
2017-10-03T03:27:07.308Z,0.00
2017-10-03T03:28:07.229Z,0.00
2017-10-03T03:29:07.142Z,0.00
2017-10-03T03:30:07.066Z,0.00
2017-10-03T03:31:06.996Z,0.00
2017-10-03T03:32:06.906Z,0.00
2017-10-03T03:33:06.823Z,0.00
2017-10-03T03:34:06.739Z,0.00
2017-10-03T03:35:06.659Z,0.00
2017-10-03T03:36:06.573Z,0.00
2017-10-03T03:37:06.491Z,0.00
2017-10-03T03:38:06.413Z,0.00
2017-10-03T03:39:06.340Z,0.00
2017-10-03T03:40:06.246Z,0.00
2017-10-03T03:41:06.168Z,0.00
2017-10-03T03:42:06.089Z,0.00
2017-10-03T03:43:06.004Z,0.00
2017-10-03T03:44:05.936Z,0.00
2017-10-03T03:45:05.841Z,0.00
2017-10-03T03:46:05.762Z,0.00
2017-10-03T03:47:05.677Z,0.00
2017-10-03T03:48:05.600Z,0.00
2017-10-03T03:49:05.517Z,0.00
2017-10-03T03:50:05.441Z,0.00
2017-10-03T03:51:05.385Z,0.00
2017-10-03T03:52:05.282Z,0.00
2017-10-03T03:53:05.192Z,0.00
2017-10-03T03:54:05.109Z,0.00
2017-10-03T03:55:05.028Z,0.00
2017-10-03T03:56:04.950Z,0.00
2017-10-03T03:57:04.871Z,0.00
2017-10-03T03:58:04.790Z,0.00
2017-10-03T03:59:04.710Z,0.00
2017-10-03T04:00:04.640Z,0.00
2017-10-03T04:01:04.543Z,0.00
2017-10-03T04:02:04.465Z,0.00
2017-10-03T04:03:04.381Z,0.00
2017-10-03T04:04:04.319Z,0.00
2017-10-03T04:05:04.218Z,0.00
2017-10-03T04:06:04.141Z,0.00
2017-10-03T04:07:04.052Z,0.00
2017-10-03T04:08:03.970Z,0.00
2017-10-03T04:09:03.904Z,0.00
2017-10-03T04:10:03.824Z,0.00
2017-10-03T04:11:03.725Z,0.00
2017-10-03T04:12:03.650Z,0.00
2017-10-03T04:13:03.573Z,0.00
2017-10-03T04:14:03.490Z,0.00
2017-10-03T04:15:03.407Z,0.00
2017-10-03T04:16:03.320Z,0.00
2017-10-03T04:17:03.245Z,0.00
2017-10-03T04:18:03.167Z,0.00
2017-10-03T04:19:03.085Z,0.00
2017-10-03T04:20:03.013Z,0.00
2017-10-03T04:21:02.924Z,0.00
2017-10-03T04:22:02.845Z,0.00
2017-10-03T04:23:02.757Z,0.00
2017-10-03T04:24:02.680Z,0.00
2017-10-03T04:25:02.596Z,0.00
2017-10-03T04:26:02.522Z,0.00
2017-10-03T04:27:02.442Z,0.00
2017-10-03T04:28:02.362Z,0.00
2017-10-03T04:29:02.280Z,0.00
2017-10-03T04:30:02.199Z,0.00
2017-10-03T04:31:02.118Z,0.00
2017-10-03T04:32:02.032Z,0.00
2017-10-03T04:33:01.952Z,0.00
2017-10-03T04:34:01.892Z,0.00
2017-10-03T04:35:01.792Z,0.00
2017-10-03T04:36:01.711Z,0.00
2017-10-03T04:37:01.640Z,0.00
2017-10-03T04:38:01.551Z,0.00
2017-10-03T04:39:01.468Z,0.00
2017-10-03T04:40:01.397Z,0.00
2017-10-03T04:41:01.309Z,0.00
2017-10-03T04:42:01.229Z,0.00
2017-10-03T04:43:01.144Z,0.00
2017-10-03T04:44:01.066Z,0.00
2017-10-03T04:45:00.984Z,0.00
2017-10-03T04:46:00.901Z,0.00
2017-10-03T04:47:00.853Z,0.00
2017-10-03T04:48:00.744Z,0.00
2017-10-03T04:49:00.666Z,0.00
2017-10-03T04:50:00.581Z,0.00
2017-10-03T04:51:00.508Z,0.00
2017-10-03T04:52:00.428Z,0.00
2017-10-03T04:53:00.343Z,0.00
2017-10-03T04:54:00.272Z,0.00
2017-10-03T04:55:00.188Z,0.00
2017-10-03T04:56:00.100Z,0.00
2017-10-03T04:57:00.019Z,0.00
2017-10-03T04:57:59.941Z,0.00
2017-10-03T04:58:59.856Z,0.00
2017-10-03T04:59:59.773Z,0.00
2017-10-03T05:00:59.698Z,0.00
2017-10-03T05:01:59.619Z,0.00
2017-10-03T05:02:59.534Z,0.00
2017-10-03T05:03:59.455Z,0.00
2017-10-03T05:04:59.376Z,0.00
2017-10-03T05:05:59.294Z,0.00
2017-10-03T05:06:59.240Z,0.00
2017-10-03T05:07:59.129Z,0.00
2017-10-03T05:08:59.070Z,0.00
2017-10-03T05:09:58.967Z,0.00
2017-10-03T05:10:58.898Z,0.00
2017-10-03T05:11:58.810Z,0.00
2017-10-03T05:12:58.729Z,0.00
2017-10-03T05:13:58.658Z,0.00
2017-10-03T05:14:58.562Z,0.00
2017-10-03T05:15:58.492Z,0.00
2017-10-03T05:16:58.405Z,0.00
2017-10-03T05:17:58.325Z,0.00
2017-10-03T05:18:58.249Z,0.00
2017-10-03T05:19:58.171Z,0.00
2017-10-03T05:20:58.082Z,0.00
2017-10-03T05:21:57.997Z,0.00
2017-10-03T05:22:57.921Z,0.00
2017-10-03T05:23:57.851Z,0.00
2017-10-03T05:24:57.761Z,0.00
2017-10-03T05:25:57.681Z,0.00
2017-10-03T05:26:57.612Z,0.00
2017-10-03T05:27:57.528Z,0.00
2017-10-03T05:28:57.435Z,0.00
2017-10-03T05:29:57.370Z,0.00
2017-10-03T05:30:57.278Z,0.00
2017-10-03T05:31:57.198Z,0.00
2017-10-03T05:32:57.139Z,0.00
2017-10-03T05:33:57.044Z,0.00
2017-10-03T05:34:56.954Z,0.00
2017-10-03T05:35:56.873Z,0.00
2017-10-03T05:36:56.794Z,0.00
2017-10-03T05:37:56.716Z,0.00
2017-10-03T05:38:56.634Z,0.00
2017-10-03T05:39:56.551Z,0.00
2017-10-03T05:40:56.472Z,0.00
2017-10-03T05:41:56.389Z,0.00
2017-10-03T05:42:56.309Z,0.00
2017-10-03T05:43:56.233Z,0.00
2017-10-03T05:44:56.151Z,0.00
2017-10-03T05:45:56.075Z,0.00
2017-10-03T05:46:56.003Z,0.00
2017-10-03T05:47:55.908Z,0.00
2017-10-03T05:48:55.824Z,0.00
2017-10-03T05:49:55.750Z,0.00
2017-10-03T05:50:55.666Z,0.00
2017-10-03T05:51:55.592Z,0.00
2017-10-03T05:52:55.519Z,0.00
2017-10-03T05:53:55.428Z,0.00
2017-10-03T05:54:55.342Z,0.00
2017-10-03T05:55:55.264Z,0.00
2017-10-03T05:56:55.186Z,0.00
2017-10-03T05:57:55.101Z,0.00
2017-10-03T05:58:55.024Z,0.00
2017-10-03T05:59:54.966Z,5.63
2017-10-03T06:00:54.861Z,5.63
2017-10-03T06:01:54.794Z,5.63
2017-10-03T06:02:54.710Z,5.63
2017-10-03T06:03:54.643Z,5.63
2017-10-03T06:04:54.534Z,5.63
2017-10-03T06:05:54.456Z,5.63
2017-10-03T06:06:54.377Z,5.63
2017-10-03T06:07:54.302Z,5.63
2017-10-03T06:08:54.213Z,5.63
2017-10-03T06:09:54.143Z,5.63
2017-10-03T06:10:54.052Z,5.63
2017-10-03T06:11:53.972Z,5.63
2017-10-03T06:12:53.889Z,5.63
2017-10-03T06:13:53.810Z,11.25
2017-10-03T06:14:53.729Z,11.25
2017-10-03T06:15:53.647Z,5.63
2017-10-03T06:16:53.591Z,5.63
2017-10-03T06:17:53.495Z,5.63
2017-10-03T06:18:53.412Z,5.63
2017-10-03T06:19:53.325Z,5.63
2017-10-03T06:20:53.240Z,5.63
2017-10-03T06:21:53.166Z,5.63
2017-10-03T06:22:53.083Z,5.63
2017-10-03T06:23:53.011Z,5.63
2017-10-03T06:24:52.920Z,5.63
2017-10-03T06:25:52.842Z,5.63
2017-10-03T06:26:52.767Z,11.25
2017-10-03T06:27:52.682Z,11.25
2017-10-03T06:28:52.609Z,11.25
2017-10-03T06:29:52.535Z,11.25
2017-10-03T06:30:52.439Z,11.25
2017-10-03T06:31:52.421Z,11.25
2017-10-03T06:32:52.279Z,11.25
2017-10-03T06:33:52.199Z,11.25
2017-10-03T06:34:52.114Z,16.88
2017-10-03T06:35:52.036Z,16.88
2017-10-03T06:36:51.963Z,11.25
2017-10-03T06:37:51.872Z,11.25
2017-10-03T06:38:51.788Z,11.25
2017-10-03T06:39:51.711Z,16.88
2017-10-03T06:40:51.630Z,22.50
2017-10-03T06:41:51.551Z,22.50
2017-10-03T06:42:51.471Z,33.75
2017-10-03T06:43:51.407Z,39.38
2017-10-03T06:44:51.308Z,45.00
2017-10-03T06:45:51.225Z,45.00
2017-10-03T06:46:51.145Z,45.00
2017-10-03T06:47:51.066Z,45.00
2017-10-03T06:48:50.981Z,45.00
2017-10-03T06:49:50.913Z,45.00
2017-10-03T06:50:50.857Z,39.38
2017-10-03T06:51:50.747Z,39.38
2017-10-03T06:52:50.662Z,33.75
2017-10-03T06:53:50.591Z,39.38
2017-10-03T06:54:50.501Z,45.00
2017-10-03T06:55:50.416Z,45.00
2017-10-03T06:56:50.336Z,45.00
2017-10-03T06:57:50.259Z,50.63
2017-10-03T06:58:50.185Z,67.50
2017-10-03T06:59:50.098Z,90.00
2017-10-03T07:00:50.029Z,123.75
2017-10-03T07:01:49.933Z,163.13
2017-10-03T07:02:49.855Z,202.50
2017-10-03T07:03:49.790Z,208.13
2017-10-03T07:04:49.693Z,225.00
2017-10-03T07:05:49.611Z,241.88
2017-10-03T07:06:49.547Z,185.63
2017-10-03T07:07:49.455Z,140.63
2017-10-03T07:08:49.369Z,118.13
2017-10-03T07:09:49.297Z,112.50
2017-10-03T07:10:49.215Z,123.75
2017-10-03T07:11:49.127Z,112.50
2017-10-03T07:12:49.052Z,95.63
2017-10-03T07:13:48.976Z,84.38
2017-10-03T07:14:48.888Z,90.00
2017-10-03T07:15:48.806Z,90.00
2017-10-03T07:16:48.741Z,90.00
2017-10-03T07:17:48.652Z,78.75
2017-10-03T07:18:48.563Z,67.50
2017-10-03T07:19:48.487Z,56.25
2017-10-03T07:20:48.421Z,50.63
2017-10-03T07:21:48.324Z,45.00
2017-10-03T07:22:48.242Z,45.00
2017-10-03T07:23:48.170Z,56.25
2017-10-03T07:24:48.086Z,90.00
2017-10-03T07:25:47.999Z,168.75
2017-10-03T07:26:47.918Z,236.25
2017-10-03T07:27:47.853Z,281.25
2017-10-03T07:28:47.759Z,270.00
2017-10-03T07:29:47.681Z,225.00
2017-10-03T07:30:47.601Z,191.25
2017-10-03T07:31:47.527Z,180.00
2017-10-03T07:32:47.432Z,191.25
2017-10-03T07:33:47.354Z,202.50
2017-10-03T07:34:47.293Z,230.63
2017-10-03T07:35:47.194Z,253.13
2017-10-03T07:36:47.115Z,247.50
2017-10-03T07:37:47.035Z,258.75
2017-10-03T07:38:46.967Z,337.50
2017-10-03T07:39:46.884Z,371.25
2017-10-03T07:40:46.804Z,320.63
2017-10-03T07:41:46.710Z,326.25
2017-10-03T07:42:46.633Z,303.75
2017-10-03T07:43:46.580Z,264.38
2017-10-03T07:44:46.486Z,264.38
2017-10-03T07:45:46.390Z,472.50
2017-10-03T07:46:46.311Z,258.75
2017-10-03T07:47:46.229Z,213.75
2017-10-03T07:48:46.155Z,185.63
2017-10-03T07:49:46.072Z,191.25
2017-10-03T07:50:46.008Z,185.63
2017-10-03T07:51:45.905Z,168.75
2017-10-03T07:52:45.828Z,146.25
2017-10-03T07:53:45.761Z,151.88
2017-10-03T07:54:45.673Z,185.63
2017-10-03T07:55:45.587Z,208.13
2017-10-03T07:56:45.511Z,219.38
2017-10-03T07:57:45.431Z,213.75
2017-10-03T07:58:45.351Z,196.88
2017-10-03T07:59:45.265Z,444.38
2017-10-03T08:00:45.184Z,303.75
2017-10-03T08:01:45.114Z,4196.25
2017-10-03T08:02:45.022Z,4955.63
2017-10-03T08:03:44.944Z,5782.50
2017-10-03T08:04:44.868Z,6125.63
2017-10-03T08:05:44.783Z,1265.63
2017-10-03T08:06:44.735Z,540.00
2017-10-03T08:07:44.647Z,472.50
2017-10-03T08:08:44.550Z,703.13
2017-10-03T08:09:44.469Z,1597.50
2017-10-03T08:10:44.400Z,1496.25
2017-10-03T08:11:44.312Z,1170.00
2017-10-03T08:12:44.246Z,1665.00
2017-10-03T08:13:44.156Z,765.00
2017-10-03T08:14:44.075Z,697.50
2017-10-03T08:15:43.998Z,821.25
2017-10-03T08:16:43.922Z,1383.75
2017-10-03T08:17:43.842Z,832.50
2017-10-03T08:18:43.765Z,883.13
2017-10-03T08:19:43.687Z,1946.25
2017-10-03T08:20:43.618Z,5917.50
2017-10-03T08:21:43.532Z,5580.00
2017-10-03T08:22:43.468Z,5101.88
2017-10-03T08:23:43.372Z,5821.88
2017-10-03T08:24:43.296Z,5844.38
2017-10-03T08:25:43.221Z,5934.38
2017-10-03T08:26:43.143Z,5968.13
2017-10-03T08:27:43.065Z,4151.25
2017-10-03T08:28:42.994Z,1102.50
2017-10-03T08:29:42.917Z,3965.63
2017-10-03T08:30:42.842Z,4387.50
2017-10-03T08:31:42.767Z,4539.38
2017-10-03T08:32:42.702Z,6170.63
2017-10-03T08:33:42.617Z,6018.75
2017-10-03T08:34:42.542Z,6103.13
2017-10-03T08:35:42.468Z,1248.75
2017-10-03T08:36:42.393Z,4533.75
2017-10-03T08:37:42.325Z,714.38
2017-10-03T08:38:42.246Z,804.38
2017-10-03T08:39:42.178Z,2098.13
2017-10-03T08:40:42.105Z,911.25
2017-10-03T08:41:42.026Z,540.00
2017-10-03T08:42:41.952Z,511.88
2017-10-03T08:43:41.903Z,601.88
2017-10-03T08:44:41.805Z,6125.63
2017-10-03T08:45:41.730Z,736.88
2017-10-03T08:46:41.666Z,601.88
2017-10-03T08:47:41.587Z,5956.88
2017-10-03T08:48:41.506Z,3825.00
2017-10-03T08:49:41.429Z,1417.50
2017-10-03T08:50:41.356Z,708.75
2017-10-03T08:51:41.284Z,6238.13
2017-10-03T08:52:41.214Z,6114.38
2017-10-03T08:53:41.144Z,1507.50
2017-10-03T08:54:41.055Z,4353.75
2017-10-03T08:55:40.980Z,2070.00
2017-10-03T08:56:40.906Z,2908.13
2017-10-03T08:57:40.841Z,2019.38
2017-10-03T08:58:40.758Z,1479.38
2017-10-03T08:59:40.686Z,1080.00
2017-10-03T09:00:40.618Z,1018.13
2017-10-03T09:01:40.556Z,607.50
2017-10-03T09:02:40.489Z,905.63
2017-10-03T09:03:40.386Z,961.88
2017-10-03T09:04:40.311Z,1040.63
2017-10-03T09:05:40.240Z,1018.13
2017-10-03T09:06:40.164Z,1040.63
2017-10-03T09:07:40.091Z,1091.25
2017-10-03T09:08:40.020Z,1074.38
2017-10-03T09:09:39.943Z,1220.63
2017-10-03T09:10:39.864Z,1113.75
2017-10-03T09:11:39.792Z,1198.13
2017-10-03T09:12:39.721Z,1074.38
2017-10-03T09:13:39.649Z,1254.38
2017-10-03T09:14:39.578Z,1181.25
2017-10-03T09:15:39.530Z,877.50
2017-10-03T09:16:39.439Z,1153.13
2017-10-03T09:17:39.397Z,1153.13
2017-10-03T09:18:39.299Z,1276.88
2017-10-03T09:19:39.214Z,1226.25
2017-10-03T09:20:39.139Z,1141.88
2017-10-03T09:21:39.077Z,866.25
2017-10-03T09:22:38.996Z,905.63
2017-10-03T09:23:38.927Z,787.50
2017-10-03T09:24:38.863Z,843.75
2017-10-03T09:25:38.801Z,1164.38
2017-10-03T09:26:38.704Z,826.88
2017-10-03T09:27:38.633Z,748.13
2017-10-03T09:28:38.554Z,585.00
2017-10-03T09:29:38.477Z,534.38
2017-10-03T09:30:38.409Z,511.88
2017-10-03T09:31:38.329Z,466.88
2017-10-03T09:32:38.255Z,455.63
2017-10-03T09:33:38.190Z,466.88
2017-10-03T09:34:38.107Z,607.50
2017-10-03T09:35:38.040Z,804.38
2017-10-03T09:36:37.976Z,1147.50
2017-10-03T09:37:37.902Z,1265.63
2017-10-03T09:38:37.808Z,843.75
2017-10-03T09:39:37.729Z,759.38
2017-10-03T09:40:37.659Z,601.88
2017-10-03T09:41:37.608Z,540.00
2017-10-03T09:42:37.510Z,1366.88
2017-10-03T09:43:37.430Z,1209.38
2017-10-03T09:44:37.355Z,2390.63
2017-10-03T09:45:37.312Z,2778.75
2017-10-03T09:46:37.222Z,3071.25
2017-10-03T09:47:37.131Z,3121.88
2017-10-03T09:48:37.056Z,3223.13
2017-10-03T09:49:37.007Z,759.38
2017-10-03T09:50:36.915Z,2986.88
2017-10-03T09:51:36.837Z,2728.13
2017-10-03T09:52:36.760Z,2323.13
2017-10-03T09:53:36.686Z,1974.38
2017-10-03T09:54:36.612Z,1642.50
2017-10-03T09:55:36.552Z,1344.38
2017-10-03T09:56:36.465Z,1080.00
2017-10-03T09:57:36.392Z,1035.00
2017-10-03T09:58:36.326Z,1119.38
2017-10-03T09:59:36.240Z,1096.88
2017-10-03T10:00:36.170Z,1006.88
2017-10-03T10:01:36.102Z,1141.88
2017-10-03T10:02:36.024Z,1164.38
2017-10-03T10:03:35.967Z,1175.63
2017-10-03T10:04:35.877Z,815.63
2017-10-03T10:05:35.804Z,1091.25
2017-10-03T10:06:35.733Z,1125.00
2017-10-03T10:07:35.661Z,1164.38
2017-10-03T10:08:35.588Z,1125.00
2017-10-03T10:09:35.514Z,1125.00
2017-10-03T10:10:35.444Z,1046.25
2017-10-03T10:11:35.371Z,1091.25
2017-10-03T10:12:35.298Z,1091.25
2017-10-03T10:13:35.232Z,1164.38
2017-10-03T10:14:35.159Z,1158.75
2017-10-03T10:15:35.087Z,1068.75
2017-10-03T10:16:35.013Z,1400.63
2017-10-03T10:17:34.972Z,1698.75
2017-10-03T10:18:34.878Z,2036.25
2017-10-03T10:19:34.808Z,2418.75
2017-10-03T10:20:34.731Z,2795.63
2017-10-03T10:21:34.666Z,3138.75
2017-10-03T10:22:34.603Z,1181.25
2017-10-03T10:23:34.514Z,2227.50
2017-10-03T10:24:34.452Z,3369.38
2017-10-03T10:25:34.379Z,658.13
2017-10-03T10:26:34.314Z,652.50
2017-10-03T10:27:34.241Z,742.50
2017-10-03T10:28:34.170Z,624.38
2017-10-03T10:29:34.097Z,3391.88
2017-10-03T10:30:34.030Z,3459.38
2017-10-03T10:31:33.957Z,3538.13
2017-10-03T10:32:33.888Z,2660.63
2017-10-03T10:33:33.811Z,3121.88
2017-10-03T10:34:33.742Z,3324.38
2017-10-03T10:35:33.672Z,1006.88
2017-10-03T10:36:33.605Z,573.75
2017-10-03T10:37:33.532Z,472.50
2017-10-03T10:38:33.460Z,444.38
2017-10-03T10:39:33.388Z,478.13
2017-10-03T10:40:33.335Z,3150.00
2017-10-03T10:41:33.244Z,3127.50
2017-10-03T10:42:33.175Z,3082.50
2017-10-03T10:43:33.111Z,3065.63
2017-10-03T10:44:33.092Z,3009.38
2017-10-03T10:45:32.974Z,2452.50
2017-10-03T10:46:32.888Z,1310.63
2017-10-03T10:47:32.815Z,984.38
2017-10-03T10:48:32.745Z,1051.88
2017-10-03T10:49:32.678Z,1158.75
2017-10-03T10:50:32.609Z,973.13
2017-10-03T10:51:32.536Z,1125.00
2017-10-03T10:52:32.462Z,2030.63
2017-10-03T10:53:32.408Z,3099.38
2017-10-03T10:54:32.346Z,3256.88
2017-10-03T10:55:32.259Z,3358.13
2017-10-03T10:56:32.226Z,2385.00
2017-10-03T10:57:32.114Z,2716.88
2017-10-03T10:58:32.042Z,2975.63
2017-10-03T10:59:31.983Z,3234.38
2017-10-03T11:00:31.906Z,3245.63
2017-10-03T11:01:31.831Z,3324.38
2017-10-03T11:02:31.760Z,2317.50
2017-10-03T11:03:31.692Z,1136.25
2017-10-03T11:04:31.620Z,551.25
2017-10-03T11:05:31.553Z,455.63
2017-10-03T11:06:31.478Z,405.00
2017-10-03T11:07:31.418Z,382.50
2017-10-03T11:08:31.334Z,376.88
2017-10-03T11:09:31.267Z,421.88
2017-10-03T11:10:31.197Z,2790.00
2017-10-03T11:11:31.128Z,2941.88
2017-10-03T11:12:31.049Z,2857.50
2017-10-03T11:13:30.977Z,3009.38
2017-10-03T11:14:30.905Z,3121.88
2017-10-03T11:15:30.838Z,3116.25
2017-10-03T11:16:30.768Z,3043.13
2017-10-03T11:17:30.706Z,1333.13
2017-10-03T11:18:30.628Z,2761.88
2017-10-03T11:19:30.571Z,3498.75
2017-10-03T11:20:30.496Z,562.50
2017-10-03T11:21:30.435Z,511.88
2017-10-03T11:22:30.355Z,517.50
2017-10-03T11:23:30.294Z,489.38
2017-10-03T11:24:30.215Z,450.00
2017-10-03T11:25:30.153Z,433.13
2017-10-03T11:26:30.076Z,393.75
2017-10-03T11:27:30.008Z,354.38
2017-10-03T11:28:29.936Z,382.50
2017-10-03T11:29:29.865Z,455.63
2017-10-03T11:30:29.797Z,3746.25
2017-10-03T11:31:29.728Z,573.75
2017-10-03T11:32:29.652Z,511.88
2017-10-03T11:33:29.582Z,523.13
2017-10-03T11:34:29.504Z,4370.63
2017-10-03T11:35:29.443Z,4213.13
2017-10-03T11:36:29.360Z,4218.75
2017-10-03T11:37:29.288Z,4224.38
2017-10-03T11:38:29.205Z,4168.13
2017-10-03T11:39:29.136Z,4134.38
2017-10-03T11:40:29.063Z,3448.13
2017-10-03T11:41:28.993Z,1468.13
2017-10-03T11:42:28.917Z,866.25
2017-10-03T11:43:28.849Z,646.88
2017-10-03T11:44:28.770Z,534.38
2017-10-03T11:45:28.696Z,511.88
2017-10-03T11:46:28.626Z,551.25
2017-10-03T11:47:28.548Z,528.75
2017-10-03T11:48:28.489Z,652.50
2017-10-03T11:49:28.410Z,590.63
2017-10-03T11:50:28.332Z,759.38
2017-10-03T11:51:28.245Z,556.88
2017-10-03T11:52:28.179Z,528.75
2017-10-03T11:53:28.108Z,680.63
2017-10-03T11:54:28.028Z,618.75
2017-10-03T11:55:27.947Z,613.13
2017-10-03T11:56:27.900Z,821.25
2017-10-03T11:57:27.802Z,759.38
2017-10-03T11:58:27.732Z,624.38
2017-10-03T11:59:27.647Z,607.50
2017-10-03T12:00:27.595Z,613.13
2017-10-03T12:01:27.525Z,590.63
2017-10-03T12:02:27.425Z,551.25
2017-10-03T12:03:27.352Z,540.00
2017-10-03T12:04:27.322Z,517.50
2017-10-03T12:05:27.200Z,483.75
2017-10-03T12:06:27.139Z,506.25
2017-10-03T12:07:27.051Z,590.63
2017-10-03T12:08:26.974Z,427.50
2017-10-03T12:09:26.902Z,438.75
2017-10-03T12:10:26.829Z,641.25
2017-10-03T12:11:26.758Z,703.13
2017-10-03T12:12:26.674Z,691.88
2017-10-03T12:13:26.605Z,697.50
2017-10-03T12:14:26.523Z,691.88
2017-10-03T12:15:26.456Z,703.13
2017-10-03T12:16:26.376Z,703.13
2017-10-03T12:17:26.303Z,691.88
2017-10-03T12:18:26.224Z,675.00
2017-10-03T12:19:26.146Z,658.13
2017-10-03T12:20:26.076Z,641.25
2017-10-03T12:21:26.006Z,624.38
2017-10-03T12:22:25.925Z,618.75
2017-10-03T12:23:25.860Z,489.38
2017-10-03T12:24:25.796Z,444.38
2017-10-03T12:25:25.698Z,461.25
2017-10-03T12:26:25.622Z,517.50
2017-10-03T12:27:25.549Z,450.00
2017-10-03T12:28:25.482Z,461.25
2017-10-03T12:29:25.393Z,444.38
2017-10-03T12:30:25.333Z,433.13
2017-10-03T12:31:25.250Z,416.25
2017-10-03T12:32:25.196Z,416.25
2017-10-03T12:33:25.096Z,461.25
2017-10-03T12:34:25.019Z,478.13
2017-10-03T12:35:24.953Z,461.25
2017-10-03T12:36:24.870Z,461.25
2017-10-03T12:37:24.788Z,466.88
2017-10-03T12:38:24.727Z,466.88
2017-10-03T12:39:24.648Z,478.13
2017-10-03T12:40:24.571Z,528.75
2017-10-03T12:41:24.495Z,562.50
2017-10-03T12:42:24.412Z,601.88
2017-10-03T12:43:24.338Z,579.38
2017-10-03T12:44:24.260Z,478.13
2017-10-03T12:45:24.187Z,601.88
2017-10-03T12:46:24.109Z,455.63
2017-10-03T12:47:24.033Z,444.38
2017-10-03T12:48:23.956Z,562.50